AFR7310 LFPG-LFMN
Flight info
| Callsign | AFR7310 |
|---|---|
| Flight time | N/A |
| Altitude | 37000 |
| Route | LATRA DCT LAMUT DCT UTUVA DCT LERGA DCT LIQID DCT LATAM DCT TUNUR DCT NISAR |
| Aircraft | A319/M-SDE3FGHIRWY/LB1 |
Departure
| Time | N/A |
|---|---|
| Airport | Charles de Gaulle International Airport (LFPG) |
Arrival
| Time | 2026-05-04 19:06 |
|---|---|
| Airport | Nice-Côte d'Azur Airport (LFMN) |
| Time | Latitude | Longitude | Altitude | Speed | Heading |
|---|---|---|---|---|---|
| 2026-05-04 18:37 | 44.96235 | 4.35052 | 37028 ft | 509 kts | 136° |
| 2026-05-04 18:38 | 44.93851 | 4.38673 | 37028 ft | 508 kts | 135° |
| 2026-05-04 18:38 | 44.89041 | 4.46002 | 37030 ft | 508 kts | 135° |
| 2026-05-04 18:39 | 44.84230 | 4.53307 | 37032 ft | 508 kts | 135° |
| 2026-05-04 18:39 | 44.79453 | 4.60569 | 37032 ft | 508 kts | 135° |
| 2026-05-04 18:40 | 44.74643 | 4.67893 | 37031 ft | 508 kts | 136° |
| 2026-05-04 18:40 | 44.69883 | 4.75144 | 37032 ft | 508 kts | 136° |
| 2026-05-04 18:41 | 44.65094 | 4.82391 | 37032 ft | 508 kts | 136° |
| 2026-05-04 18:41 | 44.60350 | 4.89785 | 37032 ft | 511 kts | 133° |
| 2026-05-04 18:42 | 44.55668 | 4.97333 | 36763 ft | 513 kts | 133° |
| 2026-05-04 18:42 | 44.53333 | 5.01072 | 36413 ft | 511 kts | 132° |
| 2026-05-04 18:42 | 44.50991 | 5.04804 | 35891 ft | 510 kts | 132° |
| 2026-05-04 18:42 | 44.48640 | 5.08543 | 35286 ft | 509 kts | 132° |
| 2026-05-04 18:43 | 44.46336 | 5.12207 | 34707 ft | 508 kts | 132° |
| 2026-05-04 18:43 | 44.44004 | 5.15909 | 34041 ft | 509 kts | 132° |
| 2026-05-04 18:43 | 44.41651 | 5.19638 | 33323 ft | 511 kts | 132° |
| 2026-05-04 18:43 | 44.39283 | 5.23314 | 32584 ft | 513 kts | 134° |
| 2026-05-04 18:44 | 44.36752 | 5.26848 | 31823 ft | 514 kts | 138° |
| 2026-05-04 18:44 | 44.34999 | 5.29042 | 31301 ft | 515 kts | 141° |
| 2026-05-04 18:44 | 44.31266 | 5.33218 | 30242 ft | 515 kts | 144° |
| 2026-05-04 18:44 | 44.28468 | 5.36229 | 29404 ft | 517 kts | 144° |
| 2026-05-04 18:45 | 44.25625 | 5.39284 | 28735 ft | 513 kts | 144° |
| 2026-05-04 18:45 | 44.22850 | 5.42278 | 28134 ft | 509 kts | 143° |
| 2026-05-04 18:45 | 44.20048 | 5.45312 | 27507 ft | 505 kts | 143° |
| 2026-05-04 18:45 | 44.17328 | 5.48261 | 26888 ft | 501 kts | 143° |
| 2026-05-04 18:46 | 44.14587 | 5.51237 | 26241 ft | 497 kts | 143° |
| 2026-05-04 18:46 | 44.11886 | 5.54167 | 25576 ft | 494 kts | 143° |
| 2026-05-04 18:46 | 44.09170 | 5.57109 | 24930 ft | 490 kts | 143° |
| 2026-05-04 18:46 | 44.06530 | 5.59964 | 24334 ft | 485 kts | 143° |
| 2026-05-04 18:47 | 44.03900 | 5.62804 | 23756 ft | 473 kts | 143° |
| 2026-05-04 18:47 | 44.01318 | 5.65588 | 23202 ft | 460 kts | 143° |
| 2026-05-04 18:47 | 43.98810 | 5.68299 | 22664 ft | 458 kts | 143° |
| 2026-05-04 18:47 | 43.96315 | 5.70991 | 22139 ft | 454 kts | 143° |
| 2026-05-04 18:48 | 43.93848 | 5.73644 | 21626 ft | 450 kts | 143° |
| 2026-05-04 18:48 | 43.91376 | 5.76295 | 21118 ft | 446 kts | 143° |
| 2026-05-04 18:48 | 43.88959 | 5.78880 | 20624 ft | 442 kts | 143° |
| 2026-05-04 18:48 | 43.86530 | 5.81467 | 20137 ft | 438 kts | 143° |
| 2026-05-04 18:49 | 43.84133 | 5.84021 | 19869 ft | 432 kts | 143° |
| 2026-05-04 18:49 | 43.81768 | 5.86544 | 19751 ft | 430 kts | 143° |
| 2026-05-04 18:49 | 43.79431 | 5.89034 | 19186 ft | 429 kts | 143° |
| 2026-05-04 18:49 | 43.77084 | 5.91534 | 18596 ft | 429 kts | 143° |
| 2026-05-04 18:50 | 43.74729 | 5.94039 | 18013 ft | 428 kts | 143° |
| 2026-05-04 18:50 | 43.72358 | 5.96560 | 17438 ft | 427 kts | 143° |
| 2026-05-04 18:50 | 43.70022 | 5.99039 | 16882 ft | 425 kts | 143° |
| 2026-05-04 18:50 | 43.67690 | 6.01512 | 16337 ft | 422 kts | 143° |
| 2026-05-04 18:51 | 43.65351 | 6.03990 | 15794 ft | 420 kts | 143° |
| 2026-05-04 18:51 | 43.63068 | 6.06407 | 15262 ft | 417 kts | 143° |
| 2026-05-04 18:51 | 43.60855 | 6.08939 | 14735 ft | 414 kts | 134° |
| 2026-05-04 18:51 | 43.59102 | 6.12063 | 14314 ft | 406 kts | 118° |
| 2026-05-04 18:52 | 43.57939 | 6.15556 | 13931 ft | 397 kts | 109° |
| 2026-05-04 18:52 | 43.56992 | 6.19101 | 13460 ft | 394 kts | 107° |
| 2026-05-04 18:52 | 43.56088 | 6.22613 | 13240 ft | 382 kts | 107° |
| 2026-05-04 18:52 | 43.55205 | 6.25971 | 13035 ft | 371 kts | 107° |
| 2026-05-04 18:53 | 43.54311 | 6.29286 | 12833 ft | 360 kts | 108° |
| 2026-05-04 18:53 | 43.53445 | 6.32438 | 12642 ft | 350 kts | 108° |
| 2026-05-04 18:53 | 43.52593 | 6.35517 | 12458 ft | 340 kts | 108° |
| 2026-05-04 18:53 | 43.51762 | 6.38506 | 12280 ft | 330 kts | 108° |
| 2026-05-04 18:54 | 43.50952 | 6.41418 | 12110 ft | 321 kts | 109° |
| 2026-05-04 18:54 | 43.49915 | 6.44111 | 11960 ft | 314 kts | 126° |
| 2026-05-04 18:54 | 43.48507 | 6.46355 | 11752 ft | 308 kts | 132° |
| 2026-05-04 18:54 | 43.47002 | 6.48467 | 11368 ft | 308 kts | 133° |
| 2026-05-04 18:55 | 43.45512 | 6.50520 | 11022 ft | 307 kts | 133° |
| 2026-05-04 18:55 | 43.42538 | 6.54720 | 10351 ft | 303 kts | 131° |
| 2026-05-04 18:55 | 43.41104 | 6.56776 | 10036 ft | 300 kts | 131° |
| 2026-05-04 18:56 | 43.39671 | 6.58838 | 9730 ft | 297 kts | 130° |
| 2026-05-04 18:56 | 43.38499 | 6.61146 | 9354 ft | 288 kts | 104° |
| 2026-05-04 18:56 | 43.38357 | 6.63759 | 9076 ft | 267 kts | 69° |
| 2026-05-04 18:56 | 43.39057 | 6.66049 | 8828 ft | 255 kts | 57° |
| 2026-05-04 18:57 | 43.39871 | 6.68195 | 8532 ft | 253 kts | 58° |
| 2026-05-04 18:57 | 43.40631 | 6.70405 | 8140 ft | 256 kts | 61° |
| 2026-05-04 18:57 | 43.41311 | 6.72632 | 7776 ft | 257 kts | 64° |
| 2026-05-04 18:57 | 43.41951 | 6.74937 | 7423 ft | 257 kts | 65° |
| 2026-05-04 18:58 | 43.42558 | 6.77263 | 7024 ft | 258 kts | 66° |
| 2026-05-04 18:58 | 43.43151 | 6.79594 | 6668 ft | 257 kts | 67° |
| 2026-05-04 18:58 | 43.43729 | 6.81910 | 6317 ft | 256 kts | 68° |
| 2026-05-04 18:58 | 43.44300 | 6.84235 | 5961 ft | 254 kts | 70° |
| 2026-05-04 18:59 | 43.44856 | 6.86544 | 5577 ft | 254 kts | 69° |
| 2026-05-04 18:59 | 43.45421 | 6.88850 | 5178 ft | 253 kts | 71° |
| 2026-05-04 18:59 | 43.45959 | 6.91092 | 4795 ft | 239 kts | 69° |
| 2026-05-04 18:59 | 43.46473 | 6.93203 | 4392 ft | 234 kts | 69° |
| 2026-05-04 19:00 | 43.47035 | 6.95334 | 4024 ft | 234 kts | 59° |
| 2026-05-04 19:00 | 43.48002 | 6.97030 | 3968 ft | 219 kts | 45° |
| 2026-05-04 19:00 | 43.49083 | 6.98400 | 3956 ft | 205 kts | 40° |
| 2026-05-04 19:00 | 43.50122 | 6.99685 | 3947 ft | 191 kts | 44° |
| 2026-05-04 19:01 | 43.51036 | 7.00873 | 3965 ft | 172 kts | 43° |
| 2026-05-04 19:01 | 43.51881 | 7.02009 | 3725 ft | 167 kts | 43° |
| 2026-05-04 19:01 | 43.52685 | 7.03110 | 3524 ft | 159 kts | 44° |
| 2026-05-04 19:01 | 43.53449 | 7.04168 | 3300 ft | 153 kts | 46° |
| 2026-05-04 19:02 | 43.54180 | 7.05187 | 3083 ft | 146 kts | 46° |
| 2026-05-04 19:02 | 43.54880 | 7.06161 | 2876 ft | 141 kts | 46° |
| 2026-05-04 19:02 | 43.55572 | 7.07127 | 2683 ft | 140 kts | 45° |
| 2026-05-04 19:02 | 43.56253 | 7.08071 | 2492 ft | 140 kts | 47° |
| 2026-05-04 19:03 | 43.56945 | 7.09031 | 2302 ft | 139 kts | 46° |
| 2026-05-04 19:03 | 43.57619 | 7.09965 | 2116 ft | 139 kts | 46° |
| 2026-05-04 19:03 | 43.58303 | 7.10909 | 1927 ft | 139 kts | 47° |
| 2026-05-04 19:03 | 43.58990 | 7.11858 | 1737 ft | 139 kts | 48° |
| 2026-05-04 19:04 | 43.59666 | 7.12795 | 1554 ft | 138 kts | 46° |
| 2026-05-04 19:04 | 43.60341 | 7.13727 | 1368 ft | 137 kts | 46° |
| 2026-05-04 19:04 | 43.61005 | 7.14640 | 1195 ft | 129 kts | 48° |
| 2026-05-04 19:04 | 43.61621 | 7.15485 | 1005 ft | 122 kts | 49° |
| 2026-05-04 19:05 | 43.62207 | 7.16296 | 851 ft | 120 kts | 49° |
| 2026-05-04 19:05 | 43.62800 | 7.17112 | 693 ft | 119 kts | 49° |
| 2026-05-04 19:05 | 43.63386 | 7.17920 | 535 ft | 118 kts | 49° |
| 2026-05-04 19:05 | 43.63966 | 7.18720 | 379 ft | 118 kts | 49° |
| 2026-05-04 19:06 | 43.64547 | 7.19521 | 221 ft | 117 kts | 49° |
| 2026-05-04 19:06 | 43.65116 | 7.20304 | 70 ft | 116 kts | 49° |
| 2026-05-04 19:06 | 43.65642 | 7.21035 | 21 ft | 87 kts | 46° |
| 2026-05-04 19:06 | 43.65894 | 7.21384 | 21 ft | 36 kts | 45° |
| 2026-05-04 19:07 | 43.66071 | 7.21627 | 21 ft | 34 kts | 45° |
| 2026-05-04 19:07 | 43.66213 | 7.21751 | 20 ft | 18 kts | 336° |
| 2026-05-04 19:07 | 43.66285 | 7.21661 | 20 ft | 11 kts | 316° |
| 2026-05-04 19:07 | 43.66260 | 7.21569 | 20 ft | 12 kts | 226° |
| 2026-05-04 19:08 | 43.66192 | 7.21473 | 20 ft | 15 kts | 223° |
| 2026-05-04 19:08 | 43.66106 | 7.21354 | 20 ft | 18 kts | 226° |
| 2026-05-04 19:08 | 43.66010 | 7.21218 | 20 ft | 21 kts | 227° |
| 2026-05-04 19:08 | 43.65996 | 7.21074 | 20 ft | 12 kts | 328° |
| 2026-05-04 19:09 | 43.66021 | 7.20996 | 20 ft | 11 kts | 232° |
| 2026-05-04 19:09 | 43.65970 | 7.20892 | 20 ft | 14 kts | 258° |
| 2026-05-04 19:09 | 43.66035 | 7.20815 | 20 ft | 13 kts | 352° |
| 2026-05-04 19:09 | 43.66084 | 7.20798 | 20 ft | 5 kts | 305° |
| 2026-05-04 19:10 | 43.66089 | 7.20751 | 20 ft | 5 kts | 262° |
| 2026-05-04 19:10 | 43.66085 | 7.20731 | 20 ft | 1 kts | 257° |
| 2026-05-04 19:10 | 43.66082 | 7.20711 | 20 ft | 0 kts | 259° |
| 2026-05-04 19:10 | 43.66082 | 7.20708 | 20 ft | 0 kts | 261° |